sensor_id;sensor_type;location;lat;lon;timestamp;temperature;humidity
71733;DHT22;59576;43.478;3.656;2022-12-07T00:01:38;2.40;89.40
71733;DHT22;59576;43.478;3.656;2022-12-07T00:04:06;2.50;89.10
71733;DHT22;59576;43.478;3.656;2022-12-07T00:06:38;2.50;89.10
71733;DHT22;59576;43.478;3.656;2022-12-07T00:09:06;2.60;88.50
71733;DHT22;59576;43.478;3.656;2022-12-07T00:11:32;2.70;88.00
71733;DHT22;59576;43.478;3.656;2022-12-07T00:14:04;2.60;88.00
71733;DHT22;59576;43.478;3.656;2022-12-07T00:16:32;2.60;88.00
71733;DHT22;59576;43.478;3.656;2022-12-07T00:18:59;2.50;87.90
71733;DHT22;59576;43.478;3.656;2022-12-07T00:21:30;2.50;88.30
71733;DHT22;59576;43.478;3.656;2022-12-07T00:23:56;2.40;87.80
71733;DHT22;59576;43.478;3.656;2022-12-07T00:26:25;2.40;88.10
71733;DHT22;59576;43.478;3.656;2022-12-07T00:28:53;2.30;88.70
71733;DHT22;59576;43.478;3.656;2022-12-07T00:31:23;2.30;89.00
71733;DHT22;59576;43.478;3.656;2022-12-07T00:33:49;2.20;89.00
71733;DHT22;59576;43.478;3.656;2022-12-07T00:36:18;2.20;89.10
71733;DHT22;59576;43.478;3.656;2022-12-07T00:38:44;2.10;89.10
71733;DHT22;59576;43.478;3.656;2022-12-07T00:41:20;2.30;89.30
71733;DHT22;59576;43.478;3.656;2022-12-07T00:43:47;2.10;88.10
71733;DHT22;59576;43.478;3.656;2022-12-07T00:46:14;2.10;89.20
71733;DHT22;59576;43.478;3.656;2022-12-07T00:48:40;2.00;89.40
71733;DHT22;59576;43.478;3.656;2022-12-07T00:51:07;1.80;89.60
71733;DHT22;59576;43.478;3.656;2022-12-07T00:53:36;1.70;90.10
71733;DHT22;59576;43.478;3.656;2022-12-07T00:56:13;1.70;90.30
71733;DHT22;59576;43.478;3.656;2022-12-07T00:58:40;1.50;90.50
71733;DHT22;59576;43.478;3.656;2022-12-07T01:01:07;1.50;90.90
71733;DHT22;59576;43.478;3.656;2022-12-07T01:03:33;1.40;90.90
71733;DHT22;59576;43.478;3.656;2022-12-07T01:05:59;1.40;91.10
71733;DHT22;59576;43.478;3.656;2022-12-07T01:08:26;1.40;91.30
71733;DHT22;59576;43.478;3.656;2022-12-07T01:11:05;1.40;91.10
71733;DHT22;59576;43.478;3.656;2022-12-07T01:13:35;1.40;91.00
71733;DHT22;59576;43.478;3.656;2022-12-07T01:16:03;1.40;90.90
71733;DHT22;59576;43.478;3.656;2022-12-07T01:18:31;1.40;90.80
71733;DHT22;59576;43.478;3.656;2022-12-07T01:21:12;1.40;90.70
71733;DHT22;59576;43.478;3.656;2022-12-07T01:23:38;1.50;90.70
71733;DHT22;59576;43.478;3.656;2022-12-07T01:26:07;1.50;90.80
71733;DHT22;59576;43.478;3.656;2022-12-07T01:28:33;1.60;90.60
71733;DHT22;59576;43.478;3.656;2022-12-07T01:31:11;1.70;90.60
71733;DHT22;59576;43.478;3.656;2022-12-07T01:33:38;1.70;90.20
71733;DHT22;59576;43.478;3.656;2022-12-07T01:36:16;1.70;89.90
71733;DHT22;59576;43.478;3.656;2022-12-07T01:38:43;1.70;90.00
71733;DHT22;59576;43.478;3.656;2022-12-07T01:41:09;1.80;89.30
71733;DHT22;59576;43.478;3.656;2022-12-07T01:43:36;2.00;88.70
71733;DHT22;59576;43.478;3.656;2022-12-07T01:46:03;2.00;87.70
71733;DHT22;59576;43.478;3.656;2022-12-07T01:48:40;2.00;87.90
71733;DHT22;59576;43.478;3.656;2022-12-07T01:51:11;2.10;87.30
71733;DHT22;59576;43.478;3.656;2022-12-07T01:53:41;2.00;87.50
71733;DHT22;59576;43.478;3.656;2022-12-07T01:56:11;1.90;87.50
71733;DHT22;59576;43.478;3.656;2022-12-07T01:58:40;1.80;87.80
71733;DHT22;59576;43.478;3.656;2022-12-07T02:01:05;1.70;87.20
71733;DHT22;59576;43.478;3.656;2022-12-07T02:03:42;1.80;88.00
71733;DHT22;59576;43.478;3.656;2022-12-07T02:06:10;1.80;88.10
71733;DHT22;59576;43.478;3.656;2022-12-07T02:08:37;1.90;87.30
71733;DHT22;59576;43.478;3.656;2022-12-07T02:11:04;1.80;87.40
71733;DHT22;59576;43.478;3.656;2022-12-07T02:13:34;1.90;87.20
71733;DHT22;59576;43.478;3.656;2022-12-07T02:24:57;1.80;87.60
71733;DHT22;59576;43.478;3.656;2022-12-07T02:30:44;1.70;87.30
71733;DHT22;59576;43.478;3.656;2022-12-07T02:33:24;1.70;88.10
71733;DHT22;59576;43.478;3.656;2022-12-07T02:39:03;1.40;88.40
71733;DHT22;59576;43.478;3.656;2022-12-07T02:41:44;1.30;89.00
71733;DHT22;59576;43.478;3.656;2022-12-07T02:44:15;1.20;89.50
71733;DHT22;59576;43.478;3.656;2022-12-07T02:46:46;1.20;89.80
71733;DHT22;59576;43.478;3.656;2022-12-07T02:49:14;1.10;89.90
71733;DHT22;59576;43.478;3.656;2022-12-07T02:51:46;1.10;90.10
71733;DHT22;59576;43.478;3.656;2022-12-07T02:54:13;1.10;90.30
71733;DHT22;59576;43.478;3.656;2022-12-07T02:56:56;1.10;90.30
71733;DHT22;59576;43.478;3.656;2022-12-07T03:16:39;0.90;90.50
71733;DHT22;59576;43.478;3.656;2022-12-07T03:18:40;0.90;90.80
71733;DHT22;59576;43.478;3.656;2022-12-07T03:21:13;0.90;90.80
71733;DHT22;59576;43.478;3.656;2022-12-07T03:23:43;0.90;90.90
71733;DHT22;59576;43.478;3.656;2022-12-07T03:26:12;0.90;90.40
71733;DHT22;59576;43.478;3.656;2022-12-07T03:28:44;0.80;90.60
71733;DHT22;59576;43.478;3.656;2022-12-07T03:31:24;0.80;90.80
71733;DHT22;59576;43.478;3.656;2022-12-07T03:36:51;0.80;90.70
71733;DHT22;59576;43.478;3.656;2022-12-07T03:41:53;0.90;90.20
71733;DHT22;59576;43.478;3.656;2022-12-07T03:44:20;0.90;90.30
71733;DHT22;59576;43.478;3.656;2022-12-07T03:52:06;0.80;89.80
71733;DHT22;59576;43.478;3.656;2022-12-07T03:54:45;0.80;90.30
71733;DHT22;59576;43.478;3.656;2022-12-07T03:57:13;0.80;90.20
71733;DHT22;59576;43.478;3.656;2022-12-07T03:59:40;0.70;90.40
71733;DHT22;59576;43.478;3.656;2022-12-07T04:02:07;0.60;90.20
71733;DHT22;59576;43.478;3.656;2022-12-07T04:04:36;0.70;90.70
71733;DHT22;59576;43.478;3.656;2022-12-07T04:07:02;0.70;90.30
71733;DHT22;59576;43.478;3.656;2022-12-07T04:09:28;0.70;90.20
71733;DHT22;59576;43.478;3.656;2022-12-07T04:11:54;0.80;90.00
71733;DHT22;59576;43.478;3.656;2022-12-07T04:14:19;0.80;90.00
71733;DHT22;59576;43.478;3.656;2022-12-07T04:16:50;1.00;89.60
71733;DHT22;59576;43.478;3.656;2022-12-07T04:19:18;1.10;88.80
71733;DHT22;59576;43.478;3.656;2022-12-07T04:21:44;1.20;87.80
71733;DHT22;59576;43.478;3.656;2022-12-07T04:24:11;1.30;87.40
71733;DHT22;59576;43.478;3.656;2022-12-07T04:26:36;1.30;86.80
71733;DHT22;59576;43.478;3.656;2022-12-07T04:29:02;1.20;87.00
71733;DHT22;59576;43.478;3.656;2022-12-07T04:31:28;1.10;87.10
71733;DHT22;59576;43.478;3.656;2022-12-07T04:33:54;1.10;87.20
71733;DHT22;59576;43.478;3.656;2022-12-07T04:36:19;1.10;87.10
71733;DHT22;59576;43.478;3.656;2022-12-07T04:38:46;1.10;87.70
71733;DHT22;59576;43.478;3.656;2022-12-07T04:41:12;1.00;87.90
71733;DHT22;59576;43.478;3.656;2022-12-07T04:43:37;1.00;88.00
71733;DHT22;59576;43.478;3.656;2022-12-07T04:46:03;0.90;88.20
71733;DHT22;59576;43.478;3.656;2022-12-07T04:48:30;0.90;88.20
71733;DHT22;59576;43.478;3.656;2022-12-07T04:50:56;0.90;88.10
71733;DHT22;59576;43.478;3.656;2022-12-07T04:53:21;0.90;88.00
71733;DHT22;59576;43.478;3.656;2022-12-07T04:55:47;0.80;88.20
71733;DHT22;59576;43.478;3.656;2022-12-07T04:58:13;0.70;88.60
71733;DHT22;59576;43.478;3.656;2022-12-07T05:00:39;0.70;88.50
71733;DHT22;59576;43.478;3.656;2022-12-07T05:03:05;0.70;88.80
71733;DHT22;59576;43.478;3.656;2022-12-07T05:05:31;0.60;89.10
71733;DHT22;59576;43.478;3.656;2022-12-07T05:07:57;0.60;89.00
71733;DHT22;59576;43.478;3.656;2022-12-07T05:10:23;0.50;89.30
71733;DHT22;59576;43.478;3.656;2022-12-07T05:12:48;0.50;89.60
71733;DHT22;59576;43.478;3.656;2022-12-07T05:15:15;0.50;89.50
71733;DHT22;59576;43.478;3.656;2022-12-07T05:17:41;0.50;89.90
71733;DHT22;59576;43.478;3.656;2022-12-07T05:20:07;0.40;89.30
71733;DHT22;59576;43.478;3.656;2022-12-07T05:22:33;0.30;89.70
71733;DHT22;59576;43.478;3.656;2022-12-07T05:24:59;0.20;90.00
71733;DHT22;59576;43.478;3.656;2022-12-07T05:27:24;0.30;90.70
71733;DHT22;59576;43.478;3.656;2022-12-07T05:29:51;0.20;90.70
71733;DHT22;59576;43.478;3.656;2022-12-07T05:32:17;0.10;90.70
71733;DHT22;59576;43.478;3.656;2022-12-07T05:34:43;0.20;91.00
71733;DHT22;59576;43.478;3.656;2022-12-07T05:37:08;0.20;90.90
71733;DHT22;59576;43.478;3.656;2022-12-07T05:39:34;0.00;90.60
71733;DHT22;59576;43.478;3.656;2022-12-07T05:42:00;0.10;91.50
71733;DHT22;59576;43.478;3.656;2022-12-07T05:44:39;0.10;91.50
71733;DHT22;59576;43.478;3.656;2022-12-07T05:47:05;0.10;91.70
71733;DHT22;59576;43.478;3.656;2022-12-07T05:49:30;0.10;91.80
71733;DHT22;59576;43.478;3.656;2022-12-07T05:51:56;0.00;91.70
71733;DHT22;59576;43.478;3.656;2022-12-07T05:54:22;-0.10;91.70
71733;DHT22;59576;43.478;3.656;2022-12-07T05:56:47;-0.10;92.00
71733;DHT22;59576;43.478;3.656;2022-12-07T05:59:13;-0.20;92.00
71733;DHT22;59576;43.478;3.656;2022-12-07T06:01:59;-0.20;92.30
71733;DHT22;59576;43.478;3.656;2022-12-07T06:04:27;-0.30;92.30
71733;DHT22;59576;43.478;3.656;2022-12-07T06:06:53;-0.40;92.30
71733;DHT22;59576;43.478;3.656;2022-12-07T06:09:21;-0.40;92.60
71733;DHT22;59576;43.478;3.656;2022-12-07T06:11:47;-0.30;93.10
71733;DHT22;59576;43.478;3.656;2022-12-07T06:14:31;-0.10;93.10
71733;DHT22;59576;43.478;3.656;2022-12-07T06:16:58;0.00;93.10
71733;DHT22;59576;43.478;3.656;2022-12-07T06:19:24;0.10;93.10
71733;DHT22;59576;43.478;3.656;2022-12-07T06:21:50;0.10;92.70
71733;DHT22;59576;43.478;3.656;2022-12-07T06:24:17;0.00;92.50
71733;DHT22;59576;43.478;3.656;2022-12-07T06:26:43;-0.10;92.40
71733;DHT22;59576;43.478;3.656;2022-12-07T06:29:10;0.00;92.70
71733;DHT22;59576;43.478;3.656;2022-12-07T06:31:36;-0.20;92.20
71733;DHT22;59576;43.478;3.656;2022-12-07T06:34:05;-0.20;92.30
71733;DHT22;59576;43.478;3.656;2022-12-07T06:36:31;-0.30;92.40
71733;DHT22;59576;43.478;3.656;2022-12-07T06:38:57;-0.40;92.40
71733;DHT22;59576;43.478;3.656;2022-12-07T06:41:23;-0.40;92.50
71733;DHT22;59576;43.478;3.656;2022-12-07T06:43:49;-0.40;92.70
71733;DHT22;59576;43.478;3.656;2022-12-07T06:46:15;-0.50;92.80
71733;DHT22;59576;43.478;3.656;2022-12-07T06:48:42;-0.50;92.90
71733;DHT22;59576;43.478;3.656;2022-12-07T06:51:08;-0.40;93.20
71733;DHT22;59576;43.478;3.656;2022-12-07T06:53:34;-0.30;93.50
71733;DHT22;59576;43.478;3.656;2022-12-07T06:56:00;-0.20;93.50
71733;DHT22;59576;43.478;3.656;2022-12-07T06:58:26;-0.10;93.40
71733;DHT22;59576;43.478;3.656;2022-12-07T07:00:51;-0.10;93.40
71733;DHT22;59576;43.478;3.656;2022-12-07T07:03:17;0.00;93.30
71733;DHT22;59576;43.478;3.656;2022-12-07T07:05:43;0.00;93.00
71733;DHT22;59576;43.478;3.656;2022-12-07T07:08:10;0.00;92.70
71733;DHT22;59576;43.478;3.656;2022-12-07T07:10:36;0.00;92.80
71733;DHT22;59576;43.478;3.656;2022-12-07T07:13:02;0.00;92.60
71733;DHT22;59576;43.478;3.656;2022-12-07T07:15:28;-0.10;92.50
71733;DHT22;59576;43.478;3.656;2022-12-07T07:17:54;-0.10;92.60
71733;DHT22;59576;43.478;3.656;2022-12-07T07:20:19;-0.10;92.70
71733;DHT22;59576;43.478;3.656;2022-12-07T07:22:45;0.00;92.80
71733;DHT22;59576;43.478;3.656;2022-12-07T07:25:11;0.10;92.70
71733;DHT22;59576;43.478;3.656;2022-12-07T07:27:37;0.10;92.40
71733;DHT22;59576;43.478;3.656;2022-12-07T07:30:03;0.20;92.20
71733;DHT22;59576;43.478;3.656;2022-12-07T07:32:29;0.20;91.90
71733;DHT22;59576;43.478;3.656;2022-12-07T07:34:55;0.30;91.70
71733;DHT22;59576;43.478;3.656;2022-12-07T07:37:20;0.30;91.10
71733;DHT22;59576;43.478;3.656;2022-12-07T07:39:46;0.20;90.80
71733;DHT22;59576;43.478;3.656;2022-12-07T07:42:12;0.20;91.20
71733;DHT22;59576;43.478;3.656;2022-12-07T07:44:38;0.40;91.00
71733;DHT22;59576;43.478;3.656;2022-12-07T07:47:03;0.40;90.70
71733;DHT22;59576;43.478;3.656;2022-12-07T07:49:29;0.50;90.30
71733;DHT22;59576;43.478;3.656;2022-12-07T07:51:55;0.60;90.20
71733;DHT22;59576;43.478;3.656;2022-12-07T07:54:21;0.60;90.10
71733;DHT22;59576;43.478;3.656;2022-12-07T07:56:46;0.60;90.10
71733;DHT22;59576;43.478;3.656;2022-12-07T07:59:12;0.80;90.30
71733;DHT22;59576;43.478;3.656;2022-12-07T08:01:38;1.00;89.80
71733;DHT22;59576;43.478;3.656;2022-12-07T08:04:03;1.00;89.10
71733;DHT22;59576;43.478;3.656;2022-12-07T08:06:29;0.90;88.50
71733;DHT22;59576;43.478;3.656;2022-12-07T08:08:55;1.00;89.00
71733;DHT22;59576;43.478;3.656;2022-12-07T08:11:21;1.10;88.30
71733;DHT22;59576;43.478;3.656;2022-12-07T08:13:47;1.10;88.10
71733;DHT22;59576;43.478;3.656;2022-12-07T08:16:12;1.20;87.80
71733;DHT22;59576;43.478;3.656;2022-12-07T08:18:39;1.20;87.80
71733;DHT22;59576;43.478;3.656;2022-12-07T08:21:07;1.30;87.70
71733;DHT22;59576;43.478;3.656;2022-12-07T08:23:33;1.50;87.70
71733;DHT22;59576;43.478;3.656;2022-12-07T08:26:08;1.60;87.70
71733;DHT22;59576;43.478;3.656;2022-12-07T08:28:34;1.70;86.70
71733;DHT22;59576;43.478;3.656;2022-12-07T08:31:07;1.90;86.10
71733;DHT22;59576;43.478;3.656;2022-12-07T08:33:34;2.10;85.70
71733;DHT22;59576;43.478;3.656;2022-12-07T08:36:02;2.30;84.40
71733;DHT22;59576;43.478;3.656;2022-12-07T08:38:28;2.50;84.30
71733;DHT22;59576;43.478;3.656;2022-12-07T08:40:54;2.70;83.60
71733;DHT22;59576;43.478;3.656;2022-12-07T08:43:21;3.10;83.10
71733;DHT22;59576;43.478;3.656;2022-12-07T08:45:48;3.60;80.20
71733;DHT22;59576;43.478;3.656;2022-12-07T08:48:16;3.80;79.10
71733;DHT22;59576;43.478;3.656;2022-12-07T08:50:47;4.00;77.30
71733;DHT22;59576;43.478;3.656;2022-12-07T08:53:14;4.30;76.90
71733;DHT22;59576;43.478;3.656;2022-12-07T08:55:39;4.50;74.50
71733;DHT22;59576;43.478;3.656;2022-12-07T08:58:05;4.70;74.40
71733;DHT22;59576;43.478;3.656;2022-12-07T09:00:31;5.30;72.40
71733;DHT22;59576;43.478;3.656;2022-12-07T09:02:57;6.20;71.20
71733;DHT22;59576;43.478;3.656;2022-12-07T09:05:22;7.90;64.60
71733;DHT22;59576;43.478;3.656;2022-12-07T09:07:51;9.60;58.90
71733;DHT22;59576;43.478;3.656;2022-12-07T09:10:18;10.60;55.10
71733;DHT22;59576;43.478;3.656;2022-12-07T09:12:44;11.20;53.70
71733;DHT22;59576;43.478;3.656;2022-12-07T09:15:09;11.40;53.70
71733;DHT22;59576;43.478;3.656;2022-12-07T09:17:35;12.80;49.90
71733;DHT22;59576;43.478;3.656;2022-12-07T09:20:02;13.10;49.90
71733;DHT22;59576;43.478;3.656;2022-12-07T09:22:29;12.90;49.20
71733;DHT22;59576;43.478;3.656;2022-12-07T09:24:59;13.50;48.40
71733;DHT22;59576;43.478;3.656;2022-12-07T09:27:25;13.40;48.70
71733;DHT22;59576;43.478;3.656;2022-12-07T09:29:51;14.30;46.60
71733;DHT22;59576;43.478;3.656;2022-12-07T09:32:17;13.90;46.70
71733;DHT22;59576;43.478;3.656;2022-12-07T09:34:43;13.50;47.40
71733;DHT22;59576;43.478;3.656;2022-12-07T09:37:09;13.40;50.50
71733;DHT22;59576;43.478;3.656;2022-12-07T09:39:38;14.50;46.90
71733;DHT22;59576;43.478;3.656;2022-12-07T09:42:04;13.70;46.40
71733;DHT22;59576;43.478;3.656;2022-12-07T09:44:32;14.00;48.30
71733;DHT22;59576;43.478;3.656;2022-12-07T09:46:58;14.20;48.00
71733;DHT22;59576;43.478;3.656;2022-12-07T09:49:28;14.90;46.40
71733;DHT22;59576;43.478;3.656;2022-12-07T09:54:39;14.70;45.30
71733;DHT22;59576;43.478;3.656;2022-12-07T09:57:08;14.90;46.10
71733;DHT22;59576;43.478;3.656;2022-12-07T09:59:35;15.80;45.70
71733;DHT22;59576;43.478;3.656;2022-12-07T10:02:55;15.40;45.30
71733;DHT22;59576;43.478;3.656;2022-12-07T10:05:20;16.30;45.70
71733;DHT22;59576;43.478;3.656;2022-12-07T10:07:47;17.70;43.50
71733;DHT22;59576;43.478;3.656;2022-12-07T10:10:27;18.20;40.70
71733;DHT22;59576;43.478;3.656;2022-12-07T10:12:59;17.40;41.10
71733;DHT22;59576;43.478;3.656;2022-12-07T10:15:42;17.30;43.20
71733;DHT22;59576;43.478;3.656;2022-12-07T10:20:45;17.50;41.90
71733;DHT22;59576;43.478;3.656;2022-12-07T10:23:16;17.50;41.60
71733;DHT22;59576;43.478;3.656;2022-12-07T10:25:43;18.10;41.50
71733;DHT22;59576;43.478;3.656;2022-12-07T10:28:11;18.00;41.10
71733;DHT22;59576;43.478;3.656;2022-12-07T10:30:59;18.60;40.10
71733;DHT22;59576;43.478;3.656;2022-12-07T10:33:33;18.30;39.80
71733;DHT22;59576;43.478;3.656;2022-12-07T10:36:00;18.00;42.50
71733;DHT22;59576;43.478;3.656;2022-12-07T10:38:28;19.20;38.40
71733;DHT22;59576;43.478;3.656;2022-12-07T10:41:06;19.00;40.70
71733;DHT22;59576;43.478;3.656;2022-12-07T10:43:32;18.90;40.10
71733;DHT22;59576;43.478;3.656;2022-12-07T10:57:51;20.40;37.20
71733;DHT22;59576;43.478;3.656;2022-12-07T11:00:24;20.90;37.50
71733;DHT22;59576;43.478;3.656;2022-12-07T11:05:41;22.00;35.00
71733;DHT22;59576;43.478;3.656;2022-12-07T11:11:14;22.60;33.00
71733;DHT22;59576;43.478;3.656;2022-12-07T11:21:57;20.70;37.50
71733;DHT22;59576;43.478;3.656;2022-12-07T11:27:20;22.20;34.50
71733;DHT22;59576;43.478;3.656;2022-12-07T11:38:31;21.50;34.60
71733;DHT22;59576;43.478;3.656;2022-12-07T11:41:03;21.90;34.10
71733;DHT22;59576;43.478;3.656;2022-12-07T11:46:52;22.30;34.80
71733;DHT22;59576;43.478;3.656;2022-12-07T11:54:50;22.70;33.20
71733;DHT22;59576;43.478;3.656;2022-12-07T11:57:24;23.60;32.70
71733;DHT22;59576;43.478;3.656;2022-12-07T11:59:56;23.70;33.00
71733;DHT22;59576;43.478;3.656;2022-12-07T12:02:32;24.00;33.90
71733;DHT22;59576;43.478;3.656;2022-12-07T12:05:21;23.50;32.90
71733;DHT22;59576;43.478;3.656;2022-12-07T12:08:12;23.80;32.20
71733;DHT22;59576;43.478;3.656;2022-12-07T12:10:51;23.50;32.60
71733;DHT22;59576;43.478;3.656;2022-12-07T12:22:06;23.50;31.40
71733;DHT22;59576;43.478;3.656;2022-12-07T12:24:35;22.90;35.40
71733;DHT22;59576;43.478;3.656;2022-12-07T12:27:06;24.10;31.10
71733;DHT22;59576;43.478;3.656;2022-12-07T12:29:38;22.90;32.60
71733;DHT22;59576;43.478;3.656;2022-12-07T12:36:59;22.00;34.40
71733;DHT22;59576;43.478;3.656;2022-12-07T12:39:25;23.40;32.70
71733;DHT22;59576;43.478;3.656;2022-12-07T12:41:53;22.90;33.10
71733;DHT22;59576;43.478;3.656;2022-12-07T12:46:55;22.40;35.00
71733;DHT22;59576;43.478;3.656;2022-12-07T12:59:29;20.70;36.70
71733;DHT22;59576;43.478;3.656;2022-12-07T13:02:21;21.90;34.20
71733;DHT22;59576;43.478;3.656;2022-12-07T13:05:00;22.20;34.00
71733;DHT22;59576;43.478;3.656;2022-12-07T13:10:37;18.20;38.60
71733;DHT22;59576;43.478;3.656;2022-12-07T13:18:43;19.90;37.30
71733;DHT22;59576;43.478;3.656;2022-12-07T13:28:54;15.90;44.80
71733;DHT22;59576;43.478;3.656;2022-12-07T13:31:44;15.70;43.50
71733;DHT22;59576;43.478;3.656;2022-12-07T13:37:45;15.30;43.90
71733;DHT22;59576;43.478;3.656;2022-12-07T13:39:54;15.80;44.80
71733;DHT22;59576;43.478;3.656;2022-12-07T13:42:31;14.70;45.70
71733;DHT22;59576;43.478;3.656;2022-12-07T13:44:59;14.10;47.00
71733;DHT22;59576;43.478;3.656;2022-12-07T13:47:36;14.80;46.20
71733;DHT22;59576;43.478;3.656;2022-12-07T13:50:15;15.10;45.50
71733;DHT22;59576;43.478;3.656;2022-12-07T13:52:47;14.30;46.80
71733;DHT22;59576;43.478;3.656;2022-12-07T13:55:15;13.90;47.10
71733;DHT22;59576;43.478;3.656;2022-12-07T13:57:42;14.30;46.30
71733;DHT22;59576;43.478;3.656;2022-12-07T14:00:24;14.30;47.00
71733;DHT22;59576;43.478;3.656;2022-12-07T14:02:59;14.10;47.20
71733;DHT22;59576;43.478;3.656;2022-12-07T14:05:30;14.20;48.10
71733;DHT22;59576;43.478;3.656;2022-12-07T14:08:21;14.00;47.90
71733;DHT22;59576;43.478;3.656;2022-12-07T14:13:36;14.60;46.50
71733;DHT22;59576;43.478;3.656;2022-12-07T14:18:45;14.10;46.40
71733;DHT22;59576;43.478;3.656;2022-12-07T14:21:23;14.20;46.70
71733;DHT22;59576;43.478;3.656;2022-12-07T14:26:40;12.10;51.70
71733;DHT22;59576;43.478;3.656;2022-12-07T14:31:51;12.20;52.10
71733;DHT22;59576;43.478;3.656;2022-12-07T14:34:20;12.20;51.10
71733;DHT22;59576;43.478;3.656;2022-12-07T14:36:45;11.90;52.50
71733;DHT22;59576;43.478;3.656;2022-12-07T14:39:11;11.60;53.60
71733;DHT22;59576;43.478;3.656;2022-12-07T14:41:37;11.50;53.40
71733;DHT22;59576;43.478;3.656;2022-12-07T14:44:19;11.90;52.90
71733;DHT22;59576;43.478;3.656;2022-12-07T14:46:47;11.40;54.40
71733;DHT22;59576;43.478;3.656;2022-12-07T14:49:13;10.90;55.00
71733;DHT22;59576;43.478;3.656;2022-12-07T14:51:39;10.50;55.00
71733;DHT22;59576;43.478;3.656;2022-12-07T14:54:07;10.40;56.60
71733;DHT22;59576;43.478;3.656;2022-12-07T14:56:37;10.20;58.10
71733;DHT22;59576;43.478;3.656;2022-12-07T14:59:02;10.20;58.10
71733;DHT22;59576;43.478;3.656;2022-12-07T15:01:28;9.90;57.20
71733;DHT22;59576;43.478;3.656;2022-12-07T15:03:54;9.80;57.80
71733;DHT22;59576;43.478;3.656;2022-12-07T15:06:19;9.70;58.20
71733;DHT22;59576;43.478;3.656;2022-12-07T15:08:45;9.60;58.40
71733;DHT22;59576;43.478;3.656;2022-12-07T15:11:16;9.50;59.30
71733;DHT22;59576;43.478;3.656;2022-12-07T15:13:42;9.40;59.60
71733;DHT22;59576;43.478;3.656;2022-12-07T15:16:26;9.30;59.70
71733;DHT22;59576;43.478;3.656;2022-12-07T15:18:52;9.20;60.20
71733;DHT22;59576;43.478;3.656;2022-12-07T15:21:17;9.00;61.40
71733;DHT22;59576;43.478;3.656;2022-12-07T15:23:44;8.80;61.90
71733;DHT22;59576;43.478;3.656;2022-12-07T15:26:11;8.80;62.70
71733;DHT22;59576;43.478;3.656;2022-12-07T15:28:37;8.70;62.70
71733;DHT22;59576;43.478;3.656;2022-12-07T15:31:02;8.50;63.80
71733;DHT22;59576;43.478;3.656;2022-12-07T15:33:28;8.30;64.40
71733;DHT22;59576;43.478;3.656;2022-12-07T15:35:54;8.10;66.00
71733;DHT22;59576;43.478;3.656;2022-12-07T15:38:19;7.90;66.50
71733;DHT22;59576;43.478;3.656;2022-12-07T15:40:48;7.80;65.80
71733;DHT22;59576;43.478;3.656;2022-12-07T15:43:14;7.70;66.50
71733;DHT22;59576;43.478;3.656;2022-12-07T15:45:58;7.40;68.10
71733;DHT22;59576;43.478;3.656;2022-12-07T15:48:25;7.30;67.90
71733;DHT22;59576;43.478;3.656;2022-12-07T15:50:51;7.20;68.00
71733;DHT22;59576;43.478;3.656;2022-12-07T15:53:17;7.10;68.80
71733;DHT22;59576;43.478;3.656;2022-12-07T15:55:42;6.90;68.60
71733;DHT22;59576;43.478;3.656;2022-12-07T15:58:08;6.70;68.70
71733;DHT22;59576;43.478;3.656;2022-12-07T16:00:34;6.60;70.90
71733;DHT22;59576;43.478;3.656;2022-12-07T16:03:00;6.50;71.10
71733;DHT22;59576;43.478;3.656;2022-12-07T16:05:25;6.30;72.90
71733;DHT22;59576;43.478;3.656;2022-12-07T16:07:51;6.10;72.60
71733;DHT22;59576;43.478;3.656;2022-12-07T16:10:17;5.90;73.60
71733;DHT22;59576;43.478;3.656;2022-12-07T16:12:42;5.90;73.10
71733;DHT22;59576;43.478;3.656;2022-12-07T16:15:08;6.00;72.40
71733;DHT22;59576;43.478;3.656;2022-12-07T16:17:34;6.10;71.70
71733;DHT22;59576;43.478;3.656;2022-12-07T16:20:00;6.00;71.30
71733;DHT22;59576;43.478;3.656;2022-12-07T16:22:25;5.90;71.50
71733;DHT22;59576;43.478;3.656;2022-12-07T16:24:51;5.90;71.50
71733;DHT22;59576;43.478;3.656;2022-12-07T16:27:17;5.80;72.30
71733;DHT22;59576;43.478;3.656;2022-12-07T16:29:42;5.80;71.50
71733;DHT22;59576;43.478;3.656;2022-12-07T16:32:08;5.80;72.00
71733;DHT22;59576;43.478;3.656;2022-12-07T16:34:34;5.70;71.90
71733;DHT22;59576;43.478;3.656;2022-12-07T16:36:59;5.70;71.80
71733;DHT22;59576;43.478;3.656;2022-12-07T16:39:25;5.60;72.30
71733;DHT22;59576;43.478;3.656;2022-12-07T16:41:51;5.50;71.60
71733;DHT22;59576;43.478;3.656;2022-12-07T16:44:18;5.40;73.30
71733;DHT22;59576;43.478;3.656;2022-12-07T16:46:43;5.30;72.50
71733;DHT22;59576;43.478;3.656;2022-12-07T16:49:16;5.10;73.80
71733;DHT22;59576;43.478;3.656;2022-12-07T16:51:42;5.00;73.60
71733;DHT22;59576;43.478;3.656;2022-12-07T16:54:11;4.90;74.00
71733;DHT22;59576;43.478;3.656;2022-12-07T16:56:37;4.80;74.90
71733;DHT22;59576;43.478;3.656;2022-12-07T16:59:04;4.60;75.70
71733;DHT22;59576;43.478;3.656;2022-12-07T17:01:29;4.50;76.70
71733;DHT22;59576;43.478;3.656;2022-12-07T17:03:57;4.40;77.20
71733;DHT22;59576;43.478;3.656;2022-12-07T17:06:25;4.30;77.40
71733;DHT22;59576;43.478;3.656;2022-12-07T17:08:51;4.20;77.80
71733;DHT22;59576;43.478;3.656;2022-12-07T17:11:19;4.00;77.00
71733;DHT22;59576;43.478;3.656;2022-12-07T17:13:45;4.00;78.70
71733;DHT22;59576;43.478;3.656;2022-12-07T17:16:31;3.90;79.40
71733;DHT22;59576;43.478;3.656;2022-12-07T17:18:57;4.00;79.20
71733;DHT22;59576;43.478;3.656;2022-12-07T17:21:23;3.90;78.80
71733;DHT22;59576;43.478;3.656;2022-12-07T17:23:49;4.00;78.10
71733;DHT22;59576;43.478;3.656;2022-12-07T17:26:20;4.10;76.90
71733;DHT22;59576;43.478;3.656;2022-12-07T17:28:46;4.20;77.10
71733;DHT22;59576;43.478;3.656;2022-12-07T17:31:14;4.30;76.70
71733;DHT22;59576;43.478;3.656;2022-12-07T17:33:39;4.30;75.60
71733;DHT22;59576;43.478;3.656;2022-12-07T17:36:20;4.30;76.10
71733;DHT22;59576;43.478;3.656;2022-12-07T17:38:46;4.30;75.70
71733;DHT22;59576;43.478;3.656;2022-12-07T17:41:17;4.30;75.60
71733;DHT22;59576;43.478;3.656;2022-12-07T17:44:03;4.30;75.10
71733;DHT22;59576;43.478;3.656;2022-12-07T17:46:30;4.30;76.10
71733;DHT22;59576;43.478;3.656;2022-12-07T17:48:56;4.10;75.90
71733;DHT22;59576;43.478;3.656;2022-12-07T17:51:23;4.00;76.60
71733;DHT22;59576;43.478;3.656;2022-12-07T17:54:07;4.00;78.30
71733;DHT22;59576;43.478;3.656;2022-12-07T17:56:33;3.80;78.30
71733;DHT22;59576;43.478;3.656;2022-12-07T17:58:58;3.70;78.90
71733;DHT22;59576;43.478;3.656;2022-12-07T18:01:24;3.70;80.10
71733;DHT22;59576;43.478;3.656;2022-12-07T18:03:50;3.60;79.90
71733;DHT22;59576;43.478;3.656;2022-12-07T18:06:16;3.50;80.10
71733;DHT22;59576;43.478;3.656;2022-12-07T18:08:41;3.50;80.60
71733;DHT22;59576;43.478;3.656;2022-12-07T18:11:07;3.50;80.40
71733;DHT22;59576;43.478;3.656;2022-12-07T18:13:33;3.40;79.60
71733;DHT22;59576;43.478;3.656;2022-12-07T18:16:08;3.40;81.10
71733;DHT22;59576;43.478;3.656;2022-12-07T18:18:34;3.40;80.50
71733;DHT22;59576;43.478;3.656;2022-12-07T18:21:09;3.40;80.40
71733;DHT22;59576;43.478;3.656;2022-12-07T18:23:38;3.40;80.10